sensor_id;sensor_type;location;lat;lon;timestamp;P1;durP1;ratioP1;P2;durP2;ratioP2
59294;SDS011;45067;44.654;20.200;2024-02-04T00:01:50;42.10;;;24.85;;
59294;SDS011;45067;44.654;20.200;2024-02-04T00:04:16;37.85;;;24.20;;
59294;SDS011;45067;44.654;20.200;2024-02-04T00:06:42;46.17;;;26.45;;
59294;SDS011;45067;44.654;20.200;2024-02-04T00:09:17;41.00;;;25.55;;
59294;SDS011;45067;44.654;20.200;2024-02-04T00:11:45;49.53;;;27.95;;
59294;SDS011;45067;44.654;20.200;2024-02-04T00:14:11;44.75;;;27.95;;
59294;SDS011;45067;44.654;20.200;2024-02-04T00:16:37;45.97;;;28.58;;
59294;SDS011;45067;44.654;20.200;2024-02-04T00:19:03;45.50;;;28.30;;
59294;SDS011;45067;44.654;20.200;2024-02-04T00:21:30;47.45;;;29.63;;
59294;SDS011;45067;44.654;20.200;2024-02-04T00:23:56;54.75;;;30.15;;
59294;SDS011;45067;44.654;20.200;2024-02-04T00:26:22;53.17;;;31.17;;
59294;SDS011;45067;44.654;20.200;2024-02-04T00:28:48;50.28;;;30.20;;
59294;SDS011;45067;44.654;20.200;2024-02-04T00:31:14;54.47;;;29.67;;
59294;SDS011;45067;44.654;20.200;2024-02-04T00:33:40;49.35;;;28.92;;
59294;SDS011;45067;44.654;20.200;2024-02-04T00:36:06;54.33;;;30.92;;
59294;SDS011;45067;44.654;20.200;2024-02-04T00:38:32;50.63;;;28.75;;
59294;SDS011;45067;44.654;20.200;2024-02-04T00:40:59;61.72;;;31.83;;
59294;SDS011;45067;44.654;20.200;2024-02-04T00:43:25;54.78;;;32.33;;
59294;SDS011;45067;44.654;20.200;2024-02-04T00:45:51;57.33;;;31.30;;
59294;SDS011;45067;44.654;20.200;2024-02-04T00:48:17;56.63;;;33.20;;
59294;SDS011;45067;44.654;20.200;2024-02-04T00:50:44;57.22;;;32.00;;
59294;SDS011;45067;44.654;20.200;2024-02-04T00:53:10;55.78;;;32.92;;
59294;SDS011;45067;44.654;20.200;2024-02-04T00:55:36;56.55;;;31.05;;
59294;SDS011;45067;44.654;20.200;2024-02-04T00:58:02;56.70;;;33.13;;
59294;SDS011;45067;44.654;20.200;2024-02-04T01:00:28;54.50;;;31.75;;
59294;SDS011;45067;44.654;20.200;2024-02-04T01:02:54;51.03;;;30.42;;
59294;SDS011;45067;44.654;20.200;2024-02-04T01:05:20;48.58;;;28.30;;
59294;SDS011;45067;44.654;20.200;2024-02-04T01:07:46;49.42;;;28.27;;
59294;SDS011;45067;44.654;20.200;2024-02-04T01:10:12;46.35;;;27.77;;
59294;SDS011;45067;44.654;20.200;2024-02-04T01:12:39;50.10;;;28.33;;
59294;SDS011;45067;44.654;20.200;2024-02-04T01:15:05;51.22;;;28.55;;
59294;SDS011;45067;44.654;20.200;2024-02-04T01:17:31;52.13;;;29.48;;
59294;SDS011;45067;44.654;20.200;2024-02-04T01:19:58;51.17;;;28.33;;
59294;SDS011;45067;44.654;20.200;2024-02-04T01:22:25;52.13;;;29.02;;
59294;SDS011;45067;44.654;20.200;2024-02-04T01:24:52;46.72;;;27.20;;
59294;SDS011;45067;44.654;20.200;2024-02-04T01:27:18;46.10;;;27.27;;
59294;SDS011;45067;44.654;20.200;2024-02-04T01:29:46;55.17;;;29.77;;
59294;SDS011;45067;44.654;20.200;2024-02-04T01:32:12;41.10;;;25.30;;
59294;SDS011;45067;44.654;20.200;2024-02-04T01:34:38;44.70;;;27.08;;
59294;SDS011;45067;44.654;20.200;2024-02-04T01:40:08;43.25;;;25.30;;
59294;SDS011;45067;44.654;20.200;2024-02-04T01:42:35;44.55;;;26.63;;
59294;SDS011;45067;44.654;20.200;2024-02-04T01:45:01;41.75;;;25.60;;
59294;SDS011;45067;44.654;20.200;2024-02-04T01:47:27;43.85;;;26.75;;
59294;SDS011;45067;44.654;20.200;2024-02-04T01:49:53;39.83;;;24.98;;
59294;SDS011;45067;44.654;20.200;2024-02-04T01:52:19;43.63;;;25.40;;
59294;SDS011;45067;44.654;20.200;2024-02-04T01:54:45;41.58;;;24.73;;
59294;SDS011;45067;44.654;20.200;2024-02-04T01:57:12;42.40;;;24.92;;
59294;SDS011;45067;44.654;20.200;2024-02-04T01:59:39;43.00;;;26.15;;
59294;SDS011;45067;44.654;20.200;2024-02-04T02:02:05;42.65;;;24.38;;
59294;SDS011;45067;44.654;20.200;2024-02-04T02:04:31;39.22;;;23.45;;
59294;SDS011;45067;44.654;20.200;2024-02-04T02:06:57;39.95;;;24.55;;
59294;SDS011;45067;44.654;20.200;2024-02-04T02:09:27;38.60;;;25.02;;
59294;SDS011;45067;44.654;20.200;2024-02-04T02:12:00;37.83;;;22.10;;
59294;SDS011;45067;44.654;20.200;2024-02-04T02:14:28;40.20;;;23.88;;
59294;SDS011;45067;44.654;20.200;2024-02-04T02:16:57;34.28;;;20.40;;
59294;SDS011;45067;44.654;20.200;2024-02-04T02:24:50;32.40;;;19.52;;
59294;SDS011;45067;44.654;20.200;2024-02-04T02:27:17;31.35;;;20.42;;
59294;SDS011;45067;44.654;20.200;2024-02-04T02:29:43;34.40;;;20.13;;
59294;SDS011;45067;44.654;20.200;2024-02-04T02:32:09;35.35;;;21.42;;
59294;SDS011;45067;44.654;20.200;2024-02-04T02:34:35;22.65;;;14.63;;
59294;SDS011;45067;44.654;20.200;2024-02-04T02:39:30;26.67;;;17.25;;
59294;SDS011;45067;44.654;20.200;2024-02-04T02:41:59;33.05;;;19.65;;
59294;SDS011;45067;44.654;20.200;2024-02-04T02:44:25;36.85;;;22.30;;
59294;SDS011;45067;44.654;20.200;2024-02-04T02:46:51;31.60;;;20.30;;
59294;SDS011;45067;44.654;20.200;2024-02-04T02:49:18;30.25;;;19.27;;
59294;SDS011;45067;44.654;20.200;2024-02-04T02:51:44;30.60;;;20.13;;
59294;SDS011;45067;44.654;20.200;2024-02-04T02:54:10;25.02;;;17.77;;
59294;SDS011;45067;44.654;20.200;2024-02-04T02:56:37;29.08;;;17.70;;
59294;SDS011;45067;44.654;20.200;2024-02-04T02:59:03;27.08;;;16.77;;
59294;SDS011;45067;44.654;20.200;2024-02-04T03:01:30;29.92;;;19.10;;
59294;SDS011;45067;44.654;20.200;2024-02-04T03:03:56;33.08;;;19.23;;
59294;SDS011;45067;44.654;20.200;2024-02-04T03:06:22;29.30;;;18.85;;
59294;SDS011;45067;44.654;20.200;2024-02-04T03:08:48;29.40;;;18.10;;
59294;SDS011;45067;44.654;20.200;2024-02-04T03:11:15;31.02;;;19.00;;
59294;SDS011;45067;44.654;20.200;2024-02-04T03:13:41;28.02;;;17.15;;
59294;SDS011;45067;44.654;20.200;2024-02-04T03:16:11;32.45;;;19.45;;
59294;SDS011;45067;44.654;20.200;2024-02-04T03:18:40;29.73;;;18.35;;
59294;SDS011;45067;44.654;20.200;2024-02-04T03:21:16;28.42;;;18.52;;
59294;SDS011;45067;44.654;20.200;2024-02-04T03:23:43;30.02;;;17.98;;
59294;SDS011;45067;44.654;20.200;2024-02-04T03:26:09;24.50;;;15.82;;
59294;SDS011;45067;44.654;20.200;2024-02-04T03:28:36;22.67;;;14.07;;
59294;SDS011;45067;44.654;20.200;2024-02-04T03:31:02;20.65;;;12.50;;
59294;SDS011;45067;44.654;20.200;2024-02-04T03:33:28;24.67;;;15.13;;
59294;SDS011;45067;44.654;20.200;2024-02-04T03:35:54;22.38;;;12.75;;
59294;SDS011;45067;44.654;20.200;2024-02-04T03:38:20;22.02;;;13.13;;
59294;SDS011;45067;44.654;20.200;2024-02-04T03:40:47;23.42;;;14.73;;
59294;SDS011;45067;44.654;20.200;2024-02-04T03:43:14;22.98;;;13.50;;
59294;SDS011;45067;44.654;20.200;2024-02-04T03:45:40;25.17;;;14.98;;
59294;SDS011;45067;44.654;20.200;2024-02-04T03:48:06;21.13;;;13.13;;
59294;SDS011;45067;44.654;20.200;2024-02-04T03:50:33;21.23;;;13.13;;
59294;SDS011;45067;44.654;20.200;2024-02-04T03:52:59;18.27;;;11.52;;
59294;SDS011;45067;44.654;20.200;2024-02-04T03:55:25;19.55;;;13.00;;
59294;SDS011;45067;44.654;20.200;2024-02-04T03:57:51;22.50;;;13.38;;
59294;SDS011;45067;44.654;20.200;2024-02-04T04:00:17;17.92;;;12.40;;
59294;SDS011;45067;44.654;20.200;2024-02-04T04:02:43;20.35;;;13.07;;
59294;SDS011;45067;44.654;20.200;2024-02-04T04:05:10;18.58;;;11.80;;
59294;SDS011;45067;44.654;20.200;2024-02-04T04:07:38;19.63;;;10.90;;
59294;SDS011;45067;44.654;20.200;2024-02-04T04:10:05;18.58;;;12.32;;
59294;SDS011;45067;44.654;20.200;2024-02-04T04:12:31;22.70;;;13.80;;
59294;SDS011;45067;44.654;20.200;2024-02-04T04:14:57;20.15;;;12.93;;
59294;SDS011;45067;44.654;20.200;2024-02-04T04:17:23;18.67;;;13.18;;
59294;SDS011;45067;44.654;20.200;2024-02-04T04:19:49;19.27;;;12.65;;
59294;SDS011;45067;44.654;20.200;2024-02-04T04:22:15;25.50;;;16.08;;
59294;SDS011;45067;44.654;20.200;2024-02-04T04:24:41;27.38;;;14.82;;
59294;SDS011;45067;44.654;20.200;2024-02-04T04:27:07;22.55;;;14.30;;
59294;SDS011;45067;44.654;20.200;2024-02-04T04:29:34;25.08;;;15.30;;
59294;SDS011;45067;44.654;20.200;2024-02-04T04:32:00;19.55;;;14.45;;
59294;SDS011;45067;44.654;20.200;2024-02-04T04:34:26;23.25;;;14.43;;
59294;SDS011;45067;44.654;20.200;2024-02-04T04:36:52;20.50;;;13.38;;
59294;SDS011;45067;44.654;20.200;2024-02-04T04:39:18;24.55;;;15.02;;
59294;SDS011;45067;44.654;20.200;2024-02-04T04:41:45;22.35;;;13.80;;
59294;SDS011;45067;44.654;20.200;2024-02-04T04:44:11;21.52;;;13.98;;
59294;SDS011;45067;44.654;20.200;2024-02-04T04:46:37;22.23;;;12.95;;
59294;SDS011;45067;44.654;20.200;2024-02-04T04:49:04;22.20;;;13.23;;
59294;SDS011;45067;44.654;20.200;2024-02-04T04:51:30;20.90;;;13.30;;
59294;SDS011;45067;44.654;20.200;2024-02-04T04:53:57;19.25;;;12.63;;
59294;SDS011;45067;44.654;20.200;2024-02-04T04:56:23;22.48;;;12.85;;
59294;SDS011;45067;44.654;20.200;2024-02-04T04:58:49;22.35;;;12.70;;
59294;SDS011;45067;44.654;20.200;2024-02-04T05:01:15;21.27;;;12.35;;
59294;SDS011;45067;44.654;20.200;2024-02-04T05:03:42;20.13;;;11.68;;
59294;SDS011;45067;44.654;20.200;2024-02-04T05:06:08;19.63;;;12.05;;
59294;SDS011;45067;44.654;20.200;2024-02-04T05:08:34;19.88;;;12.35;;
59294;SDS011;45067;44.654;20.200;2024-02-04T05:11:00;19.85;;;12.00;;
59294;SDS011;45067;44.654;20.200;2024-02-04T05:13:26;22.27;;;13.10;;
59294;SDS011;45067;44.654;20.200;2024-02-04T05:15:52;21.30;;;13.52;;
59294;SDS011;45067;44.654;20.200;2024-02-04T05:18:18;21.08;;;13.68;;
59294;SDS011;45067;44.654;20.200;2024-02-04T05:20:44;23.60;;;13.25;;
59294;SDS011;45067;44.654;20.200;2024-02-04T05:23:10;23.38;;;14.15;;
59294;SDS011;45067;44.654;20.200;2024-02-04T05:25:37;21.95;;;14.02;;
59294;SDS011;45067;44.654;20.200;2024-02-04T05:28:03;21.38;;;12.93;;
59294;SDS011;45067;44.654;20.200;2024-02-04T05:30:29;22.00;;;13.23;;
59294;SDS011;45067;44.654;20.200;2024-02-04T05:32:55;21.83;;;13.90;;
59294;SDS011;45067;44.654;20.200;2024-02-04T05:35:21;21.75;;;13.23;;
59294;SDS011;45067;44.654;20.200;2024-02-04T05:37:47;23.00;;;14.70;;
59294;SDS011;45067;44.654;20.200;2024-02-04T05:40:14;23.10;;;15.25;;
59294;SDS011;45067;44.654;20.200;2024-02-04T05:42:42;20.42;;;13.82;;
59294;SDS011;45067;44.654;20.200;2024-02-04T05:45:08;21.92;;;14.32;;
59294;SDS011;45067;44.654;20.200;2024-02-04T05:47:34;25.13;;;15.27;;
59294;SDS011;45067;44.654;20.200;2024-02-04T05:50:00;23.08;;;14.43;;
59294;SDS011;45067;44.654;20.200;2024-02-04T05:52:26;25.30;;;16.10;;
59294;SDS011;45067;44.654;20.200;2024-02-04T05:54:52;25.58;;;15.48;;
59294;SDS011;45067;44.654;20.200;2024-02-04T05:57:18;24.50;;;14.60;;
59294;SDS011;45067;44.654;20.200;2024-02-04T05:59:45;29.25;;;16.33;;
59294;SDS011;45067;44.654;20.200;2024-02-04T06:02:13;23.65;;;15.07;;
59294;SDS011;45067;44.654;20.200;2024-02-04T06:04:39;27.92;;;15.10;;
59294;SDS011;45067;44.654;20.200;2024-02-04T06:07:05;25.15;;;15.23;;
59294;SDS011;45067;44.654;20.200;2024-02-04T06:09:32;26.83;;;16.35;;
59294;SDS011;45067;44.654;20.200;2024-02-04T06:11:58;27.08;;;17.02;;
59294;SDS011;45067;44.654;20.200;2024-02-04T06:14:25;30.38;;;17.63;;
59294;SDS011;45067;44.654;20.200;2024-02-04T06:16:51;29.90;;;19.02;;
59294;SDS011;45067;44.654;20.200;2024-02-04T06:19:17;35.60;;;21.15;;
59294;SDS011;45067;44.654;20.200;2024-02-04T06:21:43;39.78;;;20.98;;
59294;SDS011;45067;44.654;20.200;2024-02-04T06:24:09;37.75;;;21.42;;
59294;SDS011;45067;44.654;20.200;2024-02-04T06:26:38;34.28;;;20.77;;
59294;SDS011;45067;44.654;20.200;2024-02-04T06:29:04;35.97;;;20.30;;
59294;SDS011;45067;44.654;20.200;2024-02-04T06:31:30;34.10;;;21.23;;
59294;SDS011;45067;44.654;20.200;2024-02-04T06:33:57;30.02;;;18.83;;
59294;SDS011;45067;44.654;20.200;2024-02-04T06:36:23;30.58;;;20.05;;
59294;SDS011;45067;44.654;20.200;2024-02-04T06:38:49;32.15;;;19.30;;
59294;SDS011;45067;44.654;20.200;2024-02-04T06:41:15;32.38;;;20.15;;
59294;SDS011;45067;44.654;20.200;2024-02-04T06:43:41;27.88;;;18.77;;
59294;SDS011;45067;44.654;20.200;2024-02-04T06:46:07;29.38;;;19.42;;
59294;SDS011;45067;44.654;20.200;2024-02-04T06:48:33;29.42;;;19.23;;
59294;SDS011;45067;44.654;20.200;2024-02-04T06:50:59;35.40;;;19.67;;
59294;SDS011;45067;44.654;20.200;2024-02-04T06:53:26;46.88;;;27.45;;
59294;SDS011;45067;44.654;20.200;2024-02-04T06:55:52;47.30;;;27.25;;
59294;SDS011;45067;44.654;20.200;2024-02-04T06:58:18;39.97;;;24.73;;
59294;SDS011;45067;44.654;20.200;2024-02-04T07:00:45;48.83;;;28.13;;
59294;SDS011;45067;44.654;20.200;2024-02-04T07:03:12;48.80;;;30.50;;
59294;SDS011;45067;44.654;20.200;2024-02-04T07:05:38;53.20;;;31.25;;
59294;SDS011;45067;44.654;20.200;2024-02-04T07:08:04;46.67;;;28.17;;
59294;SDS011;45067;44.654;20.200;2024-02-04T07:10:30;42.28;;;25.20;;
59294;SDS011;45067;44.654;20.200;2024-02-04T07:12:56;50.47;;;28.02;;
59294;SDS011;45067;44.654;20.200;2024-02-04T07:15:22;43.55;;;26.60;;
59294;SDS011;45067;44.654;20.200;2024-02-04T07:17:48;49.13;;;28.77;;
59294;SDS011;45067;44.654;20.200;2024-02-04T07:20:14;50.40;;;28.73;;
59294;SDS011;45067;44.654;20.200;2024-02-04T07:25:44;51.45;;;30.75;;
59294;SDS011;45067;44.654;20.200;2024-02-04T07:28:11;65.10;;;35.83;;
59294;SDS011;45067;44.654;20.200;2024-02-04T07:30:37;50.13;;;30.42;;
59294;SDS011;45067;44.654;20.200;2024-02-04T07:33:03;58.42;;;35.38;;
59294;SDS011;45067;44.654;20.200;2024-02-04T07:35:29;76.07;;;40.38;;
59294;SDS011;45067;44.654;20.200;2024-02-04T07:37:55;69.22;;;37.65;;
59294;SDS011;45067;44.654;20.200;2024-02-04T07:40:21;66.05;;;37.75;;
59294;SDS011;45067;44.654;20.200;2024-02-04T07:42:47;61.80;;;33.90;;
59294;SDS011;45067;44.654;20.200;2024-02-04T07:45:13;54.35;;;32.97;;
59294;SDS011;45067;44.654;20.200;2024-02-04T07:47:40;55.75;;;33.72;;
59294;SDS011;45067;44.654;20.200;2024-02-04T07:50:06;48.13;;;29.13;;
59294;SDS011;45067;44.654;20.200;2024-02-04T07:52:33;47.67;;;26.92;;
59294;SDS011;45067;44.654;20.200;2024-02-04T07:54:59;43.70;;;26.35;;
59294;SDS011;45067;44.654;20.200;2024-02-04T07:57:25;38.10;;;25.23;;
59294;SDS011;45067;44.654;20.200;2024-02-04T07:59:51;44.83;;;25.77;;
59294;SDS011;45067;44.654;20.200;2024-02-04T08:02:17;36.08;;;23.70;;
59294;SDS011;45067;44.654;20.200;2024-02-04T08:04:43;33.63;;;22.65;;
59294;SDS011;45067;44.654;20.200;2024-02-04T08:07:09;33.75;;;22.38;;
59294;SDS011;45067;44.654;20.200;2024-02-04T08:09:35;35.60;;;21.35;;
59294;SDS011;45067;44.654;20.200;2024-02-04T08:12:02;38.50;;;21.58;;
59294;SDS011;45067;44.654;20.200;2024-02-04T08:14:28;36.17;;;22.33;;
59294;SDS011;45067;44.654;20.200;2024-02-04T08:16:54;36.72;;;23.83;;
59294;SDS011;45067;44.654;20.200;2024-02-04T08:19:20;29.77;;;19.33;;
59294;SDS011;45067;44.654;20.200;2024-02-04T08:21:46;38.42;;;21.10;;
59294;SDS011;45067;44.654;20.200;2024-02-04T08:24:26;34.78;;;20.95;;
59294;SDS011;45067;44.654;20.200;2024-02-04T08:27:21;29.00;;;19.30;;
59294;SDS011;45067;44.654;20.200;2024-02-04T08:30:13;29.35;;;19.00;;
59294;SDS011;45067;44.654;20.200;2024-02-04T08:33:00;44.45;;;31.48;;
59294;SDS011;45067;44.654;20.200;2024-02-04T08:38:32;33.75;;;16.88;;
59294;SDS011;45067;44.654;20.200;2024-02-04T08:40:58;25.25;;;15.95;;
59294;SDS011;45067;44.654;20.200;2024-02-04T08:43:25;20.60;;;13.35;;
59294;SDS011;45067;44.654;20.200;2024-02-04T08:45:51;20.10;;;13.60;;
59294;SDS011;45067;44.654;20.200;2024-02-04T08:48:17;23.70;;;15.85;;
59294;SDS011;45067;44.654;20.200;2024-02-04T08:50:43;20.50;;;13.27;;
59294;SDS011;45067;44.654;20.200;2024-02-04T08:53:09;22.30;;;14.73;;
59294;SDS011;45067;44.654;20.200;2024-02-04T08:55:38;28.77;;;15.60;;
59294;SDS011;45067;44.654;20.200;2024-02-04T08:58:04;26.42;;;16.10;;
59294;SDS011;45067;44.654;20.200;2024-02-04T09:00:36;24.65;;;16.80;;
59294;SDS011;45067;44.654;20.200;2024-02-04T09:03:10;25.35;;;16.88;;
59294;SDS011;45067;44.654;20.200;2024-02-04T09:05:37;27.17;;;17.20;;
59294;SDS011;45067;44.654;20.200;2024-02-04T09:08:03;25.55;;;17.15;;
59294;SDS011;45067;44.654;20.200;2024-02-04T09:10:30;26.40;;;18.20;;
59294;SDS011;45067;44.654;20.200;2024-02-04T09:12:56;28.15;;;18.05;;
59294;SDS011;45067;44.654;20.200;2024-02-04T09:15:22;30.50;;;18.90;;
59294;SDS011;45067;44.654;20.200;2024-02-04T09:17:48;28.42;;;17.95;;
59294;SDS011;45067;44.654;20.200;2024-02-04T09:20:14;30.63;;;18.90;;
59294;SDS011;45067;44.654;20.200;2024-02-04T09:22:41;26.48;;;17.92;;
59294;SDS011;45067;44.654;20.200;2024-02-04T09:25:07;26.25;;;17.52;;
59294;SDS011;45067;44.654;20.200;2024-02-04T09:27:33;29.85;;;17.73;;
59294;SDS011;45067;44.654;20.200;2024-02-04T09:29:59;27.25;;;18.40;;
59294;SDS011;45067;44.654;20.200;2024-02-04T09:32:25;28.98;;;17.80;;
59294;SDS011;45067;44.654;20.200;2024-02-04T09:34:51;29.63;;;17.00;;
59294;SDS011;45067;44.654;20.200;2024-02-04T09:37:18;25.15;;;18.40;;
59294;SDS011;45067;44.654;20.200;2024-02-04T09:39:44;28.92;;;16.77;;
59294;SDS011;45067;44.654;20.200;2024-02-04T09:42:10;24.55;;;17.50;;
59294;SDS011;45067;44.654;20.200;2024-02-04T09:44:39;35.25;;;20.05;;
59294;SDS011;45067;44.654;20.200;2024-02-04T09:47:06;29.13;;;18.02;;
59294;SDS011;45067;44.654;20.200;2024-02-04T09:49:33;28.35;;;18.55;;
59294;SDS011;45067;44.654;20.200;2024-02-04T09:51:59;33.20;;;21.25;;
59294;SDS011;45067;44.654;20.200;2024-02-04T09:54:25;33.55;;;22.02;;
59294;SDS011;45067;44.654;20.200;2024-02-04T09:56:53;41.70;;;26.65;;
59294;SDS011;45067;44.654;20.200;2024-02-04T09:59:19;37.72;;;24.58;;
59294;SDS011;45067;44.654;20.200;2024-02-04T10:01:45;39.92;;;25.30;;
59294;SDS011;45067;44.654;20.200;2024-02-04T10:04:12;36.13;;;23.85;;
59294;SDS011;45067;44.654;20.200;2024-02-04T10:06:39;41.65;;;27.15;;
59294;SDS011;45067;44.654;20.200;2024-02-04T10:09:05;38.95;;;24.60;;
59294;SDS011;45067;44.654;20.200;2024-02-04T10:11:31;39.25;;;24.83;;
59294;SDS011;45067;44.654;20.200;2024-02-04T10:13:57;38.88;;;26.90;;
59294;SDS011;45067;44.654;20.200;2024-02-04T10:16:24;37.65;;;24.95;;
59294;SDS011;45067;44.654;20.200;2024-02-04T10:18:52;37.05;;;23.27;;
59294;SDS011;45067;44.654;20.200;2024-02-04T10:21:21;32.30;;;21.63;;
59294;SDS011;45067;44.654;20.200;2024-02-04T10:23:49;31.02;;;20.50;;
59294;SDS011;45067;44.654;20.200;2024-02-04T10:26:18;25.25;;;16.83;;
59294;SDS011;45067;44.654;20.200;2024-02-04T10:28:47;27.63;;;17.30;;
59294;SDS011;45067;44.654;20.200;2024-02-04T10:31:13;30.30;;;18.30;;
59294;SDS011;45067;44.654;20.200;2024-02-04T10:33:40;28.52;;;18.55;;
59294;SDS011;45067;44.654;20.200;2024-02-04T10:36:06;26.23;;;18.95;;
59294;SDS011;45067;44.654;20.200;2024-02-04T10:38:33;22.88;;;14.02;;
59294;SDS011;45067;44.654;20.200;2024-02-04T10:40:59;17.70;;;10.73;;
59294;SDS011;45067;44.654;20.200;2024-02-04T10:43:31;20.35;;;9.50;;
59294;SDS011;45067;44.654;20.200;2024-02-04T10:45:57;15.50;;;9.85;;
59294;SDS011;45067;44.654;20.200;2024-02-04T10:48:25;11.30;;;7.38;;
59294;SDS011;45067;44.654;20.200;2024-02-04T10:50:52;14.38;;;6.93;;
59294;SDS011;45067;44.654;20.200;2024-02-04T10:53:19;10.32;;;6.88;;
59294;SDS011;45067;44.654;20.200;2024-02-04T10:55:46;13.63;;;6.07;;
59294;SDS011;45067;44.654;20.200;2024-02-04T10:58:13;8.52;;;5.47;;
59294;SDS011;45067;44.654;20.200;2024-02-04T11:00:40;8.43;;;4.70;;
59294;SDS011;45067;44.654;20.200;2024-02-04T11:03:06;8.50;;;4.90;;
59294;SDS011;45067;44.654;20.200;2024-02-04T11:05:33;10.52;;;5.78;;
59294;SDS011;45067;44.654;20.200;2024-02-04T11:08:01;6.75;;;4.25;;
59294;SDS011;45067;44.654;20.200;2024-02-04T11:10:29;7.43;;;3.00;;
59294;SDS011;45067;44.654;20.200;2024-02-04T11:12:55;7.30;;;3.83;;
59294;SDS011;45067;44.654;20.200;2024-02-04T11:15:22;6.00;;;3.15;;
59294;SDS011;45067;44.654;20.200;2024-02-04T11:28:02;5.07;;;2.80;;
59294;SDS011;45067;44.654;20.200;2024-02-04T11:30:32;4.95;;;2.75;;
59294;SDS011;45067;44.654;20.200;2024-02-04T11:33:09;5.43;;;3.70;;
59294;SDS011;45067;44.654;20.200;2024-02-04T11:35:36;8.27;;;3.75;;
59294;SDS011;45067;44.654;20.200;2024-02-04T11:38:02;6.03;;;3.58;;
59294;SDS011;45067;44.654;20.200;2024-02-04T11:40:35;6.43;;;3.78;;
59294;SDS011;45067;44.654;20.200;2024-02-04T11:43:11;5.65;;;3.53;;
59294;SDS011;45067;44.654;20.200;2024-02-04T11:45:38;5.85;;;3.58;;
59294;SDS011;45067;44.654;20.200;2024-02-04T11:48:06;6.55;;;3.50;;
59294;SDS011;45067;44.654;20.200;2024-02-04T11:50:32;5.10;;;3.40;;
59294;SDS011;45067;44.654;20.200;2024-02-04T11:53:04;6.93;;;3.78;;
59294;SDS011;45067;44.654;20.200;2024-02-04T11:55:31;8.77;;;3.70;;
59294;SDS011;45067;44.654;20.200;2024-02-04T11:57:57;6.90;;;4.00;;
59294;SDS011;45067;44.654;20.200;2024-02-04T12:00:23;9.15;;;4.45;;
59294;SDS011;45067;44.654;20.200;2024-02-04T12:03:02;7.22;;;4.93;;
59294;SDS011;45067;44.654;20.200;2024-02-04T12:05:29;10.98;;;4.70;;
59294;SDS011;45067;44.654;20.200;2024-02-04T12:07:55;7.80;;;4.75;;
59294;SDS011;45067;44.654;20.200;2024-02-04T12:10:21;7.07;;;5.10;;
59294;SDS011;45067;44.654;20.200;2024-02-04T12:12:48;9.82;;;5.55;;
59294;SDS011;45067;44.654;20.200;2024-02-04T12:15:14;7.07;;;4.18;;
59294;SDS011;45067;44.654;20.200;2024-02-04T12:17:40;5.13;;;4.63;;
59294;SDS011;45067;44.654;20.200;2024-02-04T12:20:06;6.70;;;5.07;;
59294;SDS011;45067;44.654;20.200;2024-02-04T12:22:32;6.65;;;5.93;;
59294;SDS011;45067;44.654;20.200;2024-02-04T12:24:59;8.75;;;6.18;;
59294;SDS011;45067;44.654;20.200;2024-02-04T12:27:26;7.03;;;6.32;;
59294;SDS011;45067;44.654;20.200;2024-02-04T12:29:52;6.88;;;5.00;;
59294;SDS011;45067;44.654;20.200;2024-02-04T12:32:18;7.28;;;5.70;;
59294;SDS011;45067;44.654;20.200;2024-02-04T12:34:50;6.70;;;5.60;;
59294;SDS011;45067;44.654;20.200;2024-02-04T12:37:19;7.00;;;5.97;;
59294;SDS011;45067;44.654;20.200;2024-02-04T12:39:45;6.75;;;6.03;;
59294;SDS011;45067;44.654;20.200;2024-02-04T12:42:15;7.10;;;5.72;;
59294;SDS011;45067;44.654;20.200;2024-02-04T12:44:46;9.65;;;6.25;;
59294;SDS011;45067;44.654;20.200;2024-02-04T12:47:13;6.22;;;5.60;;
59294;SDS011;45067;44.654;20.200;2024-02-04T12:49:41;7.50;;;6.18;;
59294;SDS011;45067;44.654;20.200;2024-02-04T12:52:07;7.78;;;6.57;;
59294;SDS011;45067;44.654;20.200;2024-02-04T12:54:43;12.98;;;7.13;;
59294;SDS011;45067;44.654;20.200;2024-02-04T12:57:09;7.32;;;6.03;;
59294;SDS011;45067;44.654;20.200;2024-02-04T12:59:37;8.07;;;6.50;;
59294;SDS011;45067;44.654;20.200;2024-02-04T13:02:03;7.82;;;6.30;;
59294;SDS011;45067;44.654;20.200;2024-02-04T13:04:34;8.38;;;7.00;;
59294;SDS011;45067;44.654;20.200;2024-02-04T13:07:00;12.68;;;6.55;;
59294;SDS011;45067;44.654;20.200;2024-02-04T13:09:26;6.68;;;6.00;;
59294;SDS011;45067;44.654;20.200;2024-02-04T13:12:01;8.60;;;6.13;;
59294;SDS011;45067;44.654;20.200;2024-02-04T13:14:28;7.93;;;6.47;;
59294;SDS011;45067;44.654;20.200;2024-02-04T13:16:54;8.93;;;6.82;;
59294;SDS011;45067;44.654;20.200;2024-02-04T13:19:20;14.95;;;6.57;;
59294;SDS011;45067;44.654;20.200;2024-02-04T13:21:46;11.80;;;7.03;;
59294;SDS011;45067;44.654;20.200;2024-02-04T13:24:12;7.72;;;6.43;;
59294;SDS011;45067;44.654;20.200;2024-02-04T13:26:39;7.50;;;5.90;;
59294;SDS011;45067;44.654;20.200;2024-02-04T13:29:05;7.82;;;6.32;;
59294;SDS011;45067;44.654;20.200;2024-02-04T13:31:31;5.90;;;5.30;;
59294;SDS011;45067;44.654;20.200;2024-02-04T13:33:57;6.85;;;5.75;;
59294;SDS011;45067;44.654;20.200;2024-02-04T13:36:23;7.20;;;5.70;;
59294;SDS011;45067;44.654;20.200;2024-02-04T13:38:49;6.78;;;5.90;;
59294;SDS011;45067;44.654;20.200;2024-02-04T13:41:15;7.55;;;6.30;;
59294;SDS011;45067;44.654;20.200;2024-02-04T13:43:42;7.22;;;6.40;;
59294;SDS011;45067;44.654;20.200;2024-02-04T13:46:09;7.45;;;6.07;;
59294;SDS011;45067;44.654;20.200;2024-02-04T13:48:35;6.50;;;5.75;;
59294;SDS011;45067;44.654;20.200;2024-02-04T13:51:01;7.35;;;6.10;;
59294;SDS011;45067;44.654;20.200;2024-02-04T13:53:27;6.78;;;5.32;;
59294;SDS011;45067;44.654;20.200;2024-02-04T13:55:53;5.90;;;5.28;;
59294;SDS011;45067;44.654;20.200;2024-02-04T13:58:19;8.10;;;5.90;;
59294;SDS011;45067;44.654;20.200;2024-02-04T14:00:48;7.78;;;6.65;;
59294;SDS011;45067;44.654;20.200;2024-02-04T14:03:14;9.65;;;7.20;;
59294;SDS011;45067;44.654;20.200;2024-02-04T14:05:40;9.43;;;6.15;;
59294;SDS011;45067;44.654;20.200;2024-02-04T14:08:06;12.02;;;7.40;;
59294;SDS011;45067;44.654;20.200;2024-02-04T14:10:32;7.93;;;6.15;;
59294;SDS011;45067;44.654;20.200;2024-02-04T14:12:58;9.30;;;7.40;;
59294;SDS011;45067;44.654;20.200;2024-02-04T14:15:24;12.20;;;6.97;;
59294;SDS011;45067;44.654;20.200;2024-02-04T14:17:51;9.30;;;6.57;;
59294;SDS011;45067;44.654;20.200;2024-02-04T14:20:17;12.45;;;6.28;;
59294;SDS011;45067;44.654;20.200;2024-02-04T14:22:43;6.97;;;5.85;;
59294;SDS011;45067;44.654;20.200;2024-02-04T14:25:09;9.63;;;6.38;;
59294;SDS011;45067;44.654;20.200;2024-02-04T14:27:35;8.23;;;6.32;;
59294;SDS011;45067;44.654;20.200;2024-02-04T14:30:02;8.30;;;6.00;;
59294;SDS011;45067;44.654;20.200;2024-02-04T14:32:28;7.10;;;5.70;;
59294;SDS011;45067;44.654;20.200;2024-02-04T14:34:54;8.05;;;5.60;;
59294;SDS011;45067;44.654;20.200;2024-02-04T14:37:20;5.32;;;4.55;;
59294;SDS011;45067;44.654;20.200;2024-02-04T14:39:47;6.95;;;5.43;;
59294;SDS011;45067;44.654;20.200;2024-02-04T14:42:14;8.25;;;4.93;;